Latest Weather Observations for Tennant Creek

IDD60801

Issued at 7:21 pm CST Tuesday 23 October 2018 (issued every 10 minutes, with the page automatically refreshed every 10 minutes)

About weather observations | Map of weather stations | Latest weather observations for NT | Other Formats
Station Details ID: 015135 Name: TENNANT CREEK AIRPORT Lat: -19.64 Lon: 134.18 Height: 375.7 m
Data from the previous 72 hours. | See also: Recent months at Tennant Creek
Date/Time
CST
Temp
°C
App
Temp
°C
Dew
Point
°C
Rel
Hum
%
Delta-T
°C
Wind Press
QNH
hPa
Press
MSL
hPa
Rain since
9am
mm
Dir  Spd
km/h
Gust
km/h
Spd
kts
Gust
kts
23/07:00pm 34.1 30.9 0.7 12 16.9 ESE 7 7 4 4 1010.0 1007.4 0.0
23/06:30pm 36.1 32.7 -0.3 10 18.3 SSE 7 9 4 5 1009.7 1007.1 0.0
23/06:00pm 37.6 33.8 -0.6 9 19.3 S 9 15 5 8 1009.6 1007.0 0.0
23/05:30pm 38.0 34.6 -0.3 9 19.5 SE 7 13 4 7 1009.3 1006.7 0.0
23/05:00pm 38.6 34.5 0.1 9 19.8 SE 11 19 6 10 1009.1 1006.6 0.0
23/04:30pm 38.5 35.3 2.8 11 19.1 NNW 9 15 5 8 1009.0 1006.5 0.0
23/04:00pm 38.3 34.0 1.3 10 19.3 W 13 19 7 10 1009.1 1006.6 0.0
23/03:30pm 37.8 34.8 2.3 11 18.8 WNW 7 13 4 7 1009.3 1006.7 0.0
23/03:00pm 38.8 35.6 3.1 11 19.3 SE 9 17 5 9 1009.5 1006.9 0.0
23/02:30pm 39.1 35.9 3.3 11 19.4 E 9 15 5 8 1009.9 1007.3 0.0
23/02:00pm 38.6 34.5 4.1 12 18.8 W 15 30 8 16 1010.2 1007.6 0.0
23/01:30pm 38.5 34.5 2.8 11 19.1 N 13 19 7 10 1010.6 1008.0 0.0
23/01:00pm 38.4 35.2 2.8 11 19.0 N 9 17 5 9 1011.1 1008.6 0.0
23/12:30pm 37.2 32.6 1.8 11 18.5 NNE 15 24 8 13 1011.5 1009.0 0.0
23/12:00pm 38.2 33.8 2.6 11 19.0 NNW 15 44 8 24 1012.1 1009.5 0.0
23/11:30am 37.2 32.8 0.5 10 18.8 NNW 13 32 7 17 1012.6 1010.0 0.0
23/11:00am 36.8 31.8 1.5 11 18.3 NNW 17 28 9 15 1013.0 1010.4 0.0
23/10:30am 35.0 31.5 1.4 12 17.3 N 9 17 5 9 1013.4 1010.9 0.0
23/10:00am 34.1 30.1 0.7 12 16.9 ENE 11 15 6 8 1013.6 1011.1 0.0
23/09:30am 33.3 30.2 1.2 13 16.3 E 7 11 4 6 1013.6 1011.1 0.0
23/09:00am 31.9 28.2 0.1 13 15.7 SE 9 13 5 7 1013.7 1011.2 0.0
23/08:30am 29.9 25.0 -0.5 14 14.6 SE 15 17 8 9 1013.6 1011.1 0.0
23/08:00am 29.0 24.1 -0.2 15 14.0 SE 15 19 8 10 1013.6 1011.1 0.0
23/07:30am 28.2 24.4 1.7 18 13.1 SE 11 15 6 8 1013.3 1010.8 0.0
23/07:00am 26.8 23.5 2.7 21 12.0 SSE 9 11 5 6 1013.1 1010.5 0.0
23/06:30am 23.0 21.6 3.5 28 9.6 CALM 0 0 0 0 1012.8 1010.2 0.0
23/06:00am 22.0 19.2 2.2 27 9.5 N 6 9 3 5 1012.5 1009.9 0.0
23/05:30am 23.8 20.4 2.0 24 10.5 NNW 9 11 5 6 1012.2 1009.6 0.0
23/05:00am 24.4 22.0 1.9 23 10.9 E 4 9 2 5 1011.1 1008.6 0.0
23/04:30am 25.4 21.3 2.2 22 11.4 E 13 15 7 8 1010.4 1007.8 0.0
23/04:00am 27.8 22.3 2.1 19 12.8 E 20 37 11 20 1010.0 1007.4 0.0
23/03:30am 27.0 22.5 2.1 20 12.3 NNE 15 17 8 9 1009.3 1006.7 0.0
23/03:00am 26.6 22.0 1.8 20 12.2 NNE 15 15 8 8 1009.3 1006.7 0.0
23/02:30am 26.8 23.4 2.0 20 12.2 NNE 9 13 5 7 1009.3 1006.7 0.0
23/02:00am 27.8 23.2 1.3 18 13.0 NE 15 19 8 10 1009.4 1006.8 0.0
23/01:30am 28.9 23.9 1.4 17 13.6 NNE 17 22 9 12 1009.7 1007.1 0.0
23/01:00am 29.4 25.6 1.8 17 13.8 N 11 19 6 10 1010.2 1007.6 0.0
23/12:30am 28.6 24.1 2.0 18 13.3 NNE 15 17 8 9 1010.6 1008.0 0.0
23/12:00am 28.2 24.0 1.7 18 13.1 NNE 13 15 7 8 1011.0 1008.5 0.0
 
Date/Time
CST
Temp
°C
App
Temp
°C
Dew
Point
°C
Rel
Hum
%
Delta-T
°C
Wind Press
QNH
hPa
Press
MSL
hPa
Rain since
9am
mm
Dir  Spd
km/h
Gust
km/h
Spd
kts
Gust
kts
22/11:30pm 28.7 24.6 2.1 18 13.3 NNE 13 15 7 8 1011.2 1008.7 0.0
22/11:00pm 28.8 24.2 1.3 17 13.6 NNE 15 17 8 9 1011.4 1008.9 0.0
22/10:30pm 29.0 24.4 1.5 17 13.6 NNE 15 19 8 10 1011.5 1009.0 0.0
22/10:00pm 30.1 26.3 1.5 16 14.3 NNE 11 13 6 7 1011.7 1009.2 0.0
22/09:30pm 30.4 27.0 1.8 16 14.4 ENE 9 11 5 6 1011.7 1009.2 0.0
22/09:00pm 31.3 27.1 1.6 15 15.0 E 13 13 7 7 1011.5 1009.0 0.0
22/08:30pm 30.7 27.3 2.0 16 14.5 E 9 13 5 7 1011.4 1008.9 0.0
22/08:00pm 32.0 28.1 1.2 14 15.5 E 11 11 6 6 1011.2 1008.7 0.0
22/07:30pm 32.9 29.0 0.9 13 16.1 E 11 13 6 7 1011.0 1008.5 0.0
22/07:00pm 33.8 30.4 1.6 13 16.5 ESE 9 11 5 6 1010.7 1008.1 0.0
22/06:30pm 34.9 31.8 1.3 12 17.2 SSE 7 9 4 5 1010.4 1007.8 0.0
22/06:00pm 36.2 32.1 -0.2 10 18.4 SE 11 17 6 9 1010.1 1007.5 0.0
22/05:30pm 36.7 33.6 0.1 10 18.6 S 6 15 3 8 1009.8 1007.2 0.0
22/05:00pm 37.2 34.0 0.5 10 18.8 NNE 7 20 4 11 1009.8 1007.2 0.0
22/04:30pm 36.8 32.8 0.2 10 18.7 SE 11 20 6 11 1009.7 1007.1 0.0
22/04:00pm 36.5 32.0 0.0 10 18.5 SE 13 20 7 11 1009.8 1007.2 0.0
22/03:30pm 36.9 33.6 0.3 10 18.7 SE 7 15 4 8 1010.0 1007.4 0.0
22/03:00pm 36.8 32.4 0.2 10 18.7 ENE 13 19 7 10 1010.2 1007.6 0.0
22/02:30pm 36.8 33.3 1.5 11 18.4 WNW 9 15 5 8 1010.6 1008.0 0.0
22/02:00pm 36.5 31.9 1.3 11 18.2 NE 15 28 8 15 1011.1 1008.6 0.0
22/01:30pm 36.2 31.1 -1.7 9 18.7 N 15 26 8 14 1011.8 1009.3 0.0
22/01:00pm 35.5 29.4 -2.2 9 18.3 NE 20 33 11 18 1012.5 1009.9 0.0
22/12:30pm 35.7 29.1 -3.6 8 18.7 NNE 22 30 12 16 1013.1 1010.5 0.0
22/12:00pm 34.9 27.8 -4.2 8 18.3 NE 24 33 13 18 1013.7 1011.2 0.0
22/11:30am 34.3 27.7 -3.1 9 17.8 ENE 22 30 12 16 1014.4 1011.9 0.0
22/11:00am 32.6 25.5 -4.3 9 17.0 ENE 24 30 13 16 1014.9 1012.3 0.0
22/10:30am 30.5 23.5 -3.3 11 15.6 ENE 24 33 13 18 1015.1 1012.5 0.0
22/10:00am 29.7 22.4 -2.7 12 15.0 NE 26 33 14 18 1015.1 1012.5 0.0
22/09:30am 28.7 21.7 -3.5 12 14.6 ENE 24 30 13 16 1015.5 1012.9 0.0
22/09:00am 28.3 23.7 -3.8 12 14.4 ESE 11 17 6 9 1016.7 1014.2 0.0
22/08:30am 28.5 20.7 -3.6 12 14.5 ENE 28 33 15 18 1015.3 1012.7 0.0
22/08:00am 27.7 20.9 -2.2 14 13.8 ENE 24 33 13 18 1015.0 1012.4 0.0
22/07:30am 26.2 19.3 -2.4 15 12.9 NE 24 32 13 17 1014.7 1012.2 0.0
22/07:00am 25.3 19.7 -3.2 15 12.6 ENE 17 26 9 14 1014.2 1011.7 0.0
22/06:30am 24.8 18.7 -3.6 15 12.4 ENE 19 22 10 12 1013.9 1011.4 0.0
22/06:00am 24.1 18.8 -3.3 16 12.0 E 15 19 8 10 1013.0 1010.4 0.0
22/05:30am 24.5 19.3 -2.9 16 12.1 ESE 15 17 8 9 1012.6 1010.0 0.0
22/05:00am 25.2 19.2 -3.2 15 12.6 E 19 26 10 14 1012.1 1009.5 0.0
22/04:30am 24.7 18.8 -2.0 17 12.0 E 19 24 10 13 1011.8 1009.3 0.0
22/04:00am 25.0 19.6 -1.7 17 12.1 E 17 20 9 11 1011.9 1009.4 0.0
22/03:30am 25.7 20.2 -2.0 16 12.6 ESE 17 24 9 13 1011.7 1009.2 0.0
22/03:00am 25.7 20.3 -1.2 17 12.4 ESE 17 22 9 12 1011.7 1009.2 0.0
22/02:30am 26.7 21.3 -1.2 16 13.0 ESE 17 22 9 12 1011.8 1009.3 0.0
22/02:00am 26.2 21.1 0.8 19 12.2 E 17 19 9 10 1011.9 1009.4 0.0
22/01:30am 27.0 22.4 1.4 19 12.5 E 15 17 8 9 1012.2 1009.6 0.0
22/01:00am 27.7 22.4 2.0 19 12.7 E 19 22 10 12 1012.4 1009.8 0.0
22/12:30am 27.8 23.3 4.2 22 12.2 ESE 17 19 9 10 1012.7 1010.1 0.0
22/12:00am 27.4 23.7 4.5 23 11.8 E 13 15 7 8 1013.0 1010.4 0.0
 
Date/Time
CST
Temp
°C
App
Temp
°C
Dew
Point
°C
Rel
Hum
%
Delta-T
°C
Wind Press
QNH
hPa
Press
MSL
hPa
Rain since
9am
mm
Dir  Spd
km/h
Gust
km/h
Spd
kts
Gust
kts
21/11:30pm 28.2 24.5 4.5 22 12.3 E 13 17 7 9 1013.4 1010.9 0.0
21/11:00pm 28.9 25.2 4.4 21 12.8 ESE 13 15 7 8 1013.6 1011.1 0.0
21/10:30pm 29.0 25.3 4.5 21 12.8 ESE 13 17 7 9 1013.7 1011.2 0.0
21/10:00pm 28.9 25.2 4.4 21 12.8 E 13 15 7 8 1013.7 1011.2 0.0
21/09:30pm 29.4 25.6 4.1 20 13.1 E 13 15 7 8 1013.6 1011.1 0.0
21/09:00pm 30.0 26.2 3.9 19 13.6 E 13 13 7 7 1013.4 1010.9 0.0
21/08:30pm 31.3 27.8 3.4 17 14.5 ESE 11 13 6 7 1013.2 1010.7 0.0
21/08:00pm 31.7 28.2 3.7 17 14.6 ESE 11 13 6 7 1012.9 1010.3 0.0
21/07:30pm 32.2 28.3 3.2 16 15.1 ESE 13 15 7 8 1012.6 1010.0 0.0
21/07:00pm 33.2 29.6 3.1 15 15.7 ESE 11 13 6 7 1012.4 1009.8 0.0
21/06:30pm 34.0 30.4 2.8 14 16.3 ESE 11 15 6 8 1012.1 1009.5 0.0
21/06:00pm 34.8 31.1 2.3 13 16.9 ENE 11 15 6 8 1011.6 1009.1 0.0
21/05:30pm 35.1 32.2 2.6 13 17.0 SE 7 15 4 8 1011.5 1009.0 0.0
21/05:00pm 35.2 31.4 1.5 12 17.4 E 11 19 6 10 1011.4 1008.9 0.0
21/04:30pm 36.4 33.1 2.5 12 17.9 ENE 9 15 5 8 1011.4 1008.9 0.0
21/04:00pm 36.3 33.4 2.4 12 17.8 NE 7 13 4 7 1011.3 1008.8 0.0
21/03:30pm 35.7 32.7 1.9 12 17.6 NNE 7 19 4 10 1011.6 1009.1 0.0
21/03:00pm 35.1 30.5 1.5 12 17.3 E 15 24 8 13 1012.3 1009.7 0.0
21/02:30pm 34.5 30.2 1.0 12 17.1 ESE 13 20 7 11 1012.8 1010.2 0.0
21/02:00pm 34.2 31.0 0.8 12 16.9 S 7 15 4 8 1013.2 1010.7 0.0
21/01:30pm 33.5 28.7 0.2 12 16.6 NE 15 32 8 17 1013.8 1011.3 0.0
21/01:00pm 33.0 27.2 -0.2 12 16.4 ENE 20 30 11 16 1014.4 1011.9 0.0
21/12:30pm 33.2 28.0 0.0 12 16.5 NE 17 32 9 17 1015.1 1012.5 0.0
21/12:00pm 32.0 25.3 -0.9 12 16.0 E 24 37 13 20 1015.7 1013.2 0.0
21/11:30am 31.1 24.3 -1.6 12 15.6 E 24 39 13 21 1016.1 1013.6 0.0
21/11:00am 31.1 24.0 -1.6 12 15.6 ESE 26 35 14 19 1016.5 1014.0 0.0
21/10:30am 30.3 22.7 -2.2 12 15.2 E 28 37 15 20 1016.9 1014.4 0.0
21/10:00am 29.3 21.7 -1.9 13 14.6 E 28 39 15 21 1017.4 1014.9 0.0
21/09:30am 28.5 20.1 -2.6 13 14.3 E 32 39 17 21 1017.5 1015.0 0.0
21/09:00am 27.5 19.4 -3.3 13 13.8 E 30 39 16 21 1017.8 1015.2 0.0
21/08:30am 26.3 17.6 -3.3 14 13.2 E 33 43 18 23 1017.8 1015.2 0.0
21/08:00am 26.3 17.8 -3.3 14 13.2 E 32 41 17 22 1017.7 1015.1 0.0
21/07:30am 25.3 16.8 -1.5 17 12.2 ESE 33 43 18 23 1017.4 1014.9 0.0
21/07:00am 24.8 16.2 0.3 20 11.5 ESE 35 44 19 24 1016.7 1014.2 0.0
21/06:30am 24.2 17.6 1.8 23 10.8 ESE 26 35 14 19 1016.4 1013.9 0.0
21/06:00am 24.4 17.1 2.5 24 10.7 ESE 30 37 16 20 1015.9 1013.4 0.0
21/05:30am 24.7 17.8 2.8 24 10.8 E 28 39 15 21 1015.5 1012.9 0.0
21/05:00am 25.0 17.8 3.0 24 10.9 E 30 39 16 21 1015.5 1012.9 0.0
21/04:30am 25.5 18.0 3.5 24 11.0 E 32 44 17 24 1014.9 1012.3 0.0
21/04:00am 26.0 18.4 3.9 24 11.2 ESE 33 46 18 25 1014.5 1012.0 0.0
21/03:30am 26.0 20.2 4.5 25 11.0 E 24 32 13 17 1014.6 1012.1 0.0
21/03:00am 26.5 20.8 4.9 25 11.2 ESE 24 28 13 15 1014.5 1012.0 0.0
21/02:30am 26.8 20.8 5.1 25 11.3 E 26 35 14 19 1014.6 1012.1 0.0
21/02:00am 27.2 23.0 5.5 25 11.4 E 17 28 9 15 1014.9 1012.3 0.0
21/01:30am 27.5 22.0 5.7 25 11.5 SE 24 33 13 18 1014.0 1011.5 0.0
21/01:00am 28.0 22.1 5.6 24 11.8 SE 26 35 14 19 1014.1 1011.6 0.0
21/12:30am 28.5 22.6 6.0 24 12.0 SE 26 35 14 19 1014.3 1011.8 0.0
21/12:00am 29.0 23.1 5.8 23 12.4 SE 26 37 14 20 1014.5 1012.0 0.0
 
Date/Time
CST
Temp
°C
App
Temp
°C
Dew
Point
°C
Rel
Hum
%
Delta-T
°C
Wind Press
QNH
hPa
Press
MSL
hPa
Rain since
9am
mm
Dir  Spd
km/h
Gust
km/h
Spd
kts
Gust
kts
20/11:30pm 29.5 23.9 5.6 22 12.7 SE 24 37 13 20 1014.9 1012.3 0.0
20/11:00pm 29.8 24.3 5.8 22 12.9 SE 24 33 13 18 1015.0 1012.4 0.0
20/10:30pm 30.5 24.6 5.7 21 13.3 SE 26 37 14 20 1015.1 1012.5 0.0
20/10:00pm 31.0 24.4 6.1 21 13.5 SE 30 41 16 22 1014.6 1012.1 0.0
20/09:30pm 31.8 25.6 6.1 20 14.0 SE 28 39 15 21 1014.2 1011.7 0.0
20/09:00pm 32.5 26.6 5.9 19 14.5 ESE 26 35 14 19 1013.8 1011.3 0.0
20/08:30pm 33.2 26.5 5.7 18 15.0 ESE 30 39 16 21 1013.4 1010.9 0.0
20/08:00pm 34.2 27.1 5.7 17 15.6 SE 32 43 17 23 1012.8 1010.2 0.0
20/07:54pm 34.3 27.6 5.8 17 15.6 SE 30 43 16 23 1012.6 1010.0 0.0
20/07:30pm 34.3 30.8 8.8 21 14.7 SSE 17 22 9 12 1012.3 1009.7 0.0

Other Formats:

Comma delimited format used in spreadsheet applications
http://www.bom.gov.au/fwo/IDD60801/IDD60801.94238.axf

JavaScript Object Notation format (JSON) in row-major order
http://www.bom.gov.au/fwo/IDD60801/IDD60801.94238.json